DLH4LL EDDH-EDDF
Flight info
| Callsign | DLH4LL |
|---|---|
| Flight time | 0h 46m |
| Altitude | 30000 |
| Route | AMLUH2C AMLUH M852 DENIX DCT RIMET/N0452F310 T157 KOKEB/N0394F230 T157 KERAX KERAX5A |
| Aircraft | A20N/M-SDE2E3FGHIRWXY/LB1 |
Departure
| Time | 2026-05-06 21:49 |
|---|---|
| Airport | Hamburg Helmut Schmidt Airport (EDDH) |
Arrival
| Time | 2026-05-06 22:36 |
|---|---|
| Airport | Frankfurt Main Airport (EDDF) |
| Time | Latitude | Longitude | Altitude | Speed | Heading |
|---|---|---|---|---|---|
| 2026-05-06 21:46 | 53.63101 | 10.00215 | 37 ft | 1 kts | 146° |
| 2026-05-06 21:46 | 53.63086 | 10.00219 | 37 ft | 3 kts | 169° |
| 2026-05-06 21:46 | 53.63048 | 10.00207 | 38 ft | 11 kts | 213° |
| 2026-05-06 21:47 | 53.62982 | 10.00130 | 37 ft | 12 kts | 214° |
| 2026-05-06 21:47 | 53.62925 | 10.00011 | 35 ft | 10 kts | 245° |
| 2026-05-06 21:47 | 53.62889 | 9.99887 | 32 ft | 13 kts | 244° |
| 2026-05-06 21:47 | 53.62882 | 9.99730 | 30 ft | 15 kts | 309° |
| 2026-05-06 21:48 | 53.62976 | 9.99652 | 29 ft | 13 kts | 333° |
| 2026-05-06 21:48 | 53.63009 | 9.99621 | 29 ft | 0 kts | 329° |
| 2026-05-06 21:48 | 53.63011 | 9.99620 | 29 ft | 0 kts | 329° |
| 2026-05-06 21:48 | 53.63055 | 9.99579 | 30 ft | 34 kts | 333° |
| 2026-05-06 21:49 | 53.63534 | 9.99167 | 35 ft | 115 kts | 334° |
| 2026-05-06 21:49 | 53.64427 | 9.98415 | 184 ft | 163 kts | 336° |
| 2026-05-06 21:49 | 53.65459 | 9.97522 | 862 ft | 171 kts | 338° |
| 2026-05-06 21:49 | 53.66523 | 9.96648 | 1728 ft | 173 kts | 341° |
| 2026-05-06 21:50 | 53.67623 | 9.95777 | 2414 ft | 186 kts | 340° |
| 2026-05-06 21:50 | 53.68839 | 9.94796 | 3051 ft | 203 kts | 345° |
| 2026-05-06 21:50 | 53.70262 | 9.94432 | 3697 ft | 215 kts | 7° |
| 2026-05-06 21:50 | 53.71721 | 9.94690 | 4822 ft | 212 kts | 13° |
| 2026-05-06 21:51 | 53.73045 | 9.95673 | 5765 ft | 214 kts | 43° |
| 2026-05-06 21:51 | 53.73842 | 9.97740 | 6700 ft | 219 kts | 73° |
| 2026-05-06 21:51 | 53.74057 | 10.00284 | 7577 ft | 225 kts | 82° |
| 2026-05-06 21:51 | 53.74197 | 10.02927 | 8451 ft | 232 kts | 89° |
| 2026-05-06 21:52 | 53.73788 | 10.05568 | 9148 ft | 246 kts | 117° |
| 2026-05-06 21:52 | 53.72874 | 10.08126 | 9722 ft | 264 kts | 121° |
| 2026-05-06 21:52 | 53.71864 | 10.10857 | 10308 ft | 282 kts | 121° |
| 2026-05-06 21:52 | 53.70824 | 10.13781 | 10854 ft | 300 kts | 120° |
| 2026-05-06 21:53 | 53.69738 | 10.16919 | 11368 ft | 319 kts | 121° |
| 2026-05-06 21:53 | 53.68253 | 10.19818 | 11749 ft | 338 kts | 142° |
| 2026-05-06 21:53 | 53.66129 | 10.21707 | 12210 ft | 356 kts | 162° |
| 2026-05-06 21:53 | 53.63754 | 10.22787 | 12863 ft | 364 kts | 166° |
| 2026-05-06 21:54 | 53.61276 | 10.23872 | 13713 ft | 368 kts | 166° |
| 2026-05-06 21:54 | 53.58831 | 10.24957 | 14514 ft | 371 kts | 166° |
| 2026-05-06 21:54 | 53.56311 | 10.26092 | 15275 ft | 375 kts | 166° |
| 2026-05-06 21:54 | 53.53781 | 10.27242 | 16062 ft | 379 kts | 166° |
| 2026-05-06 21:55 | 53.51259 | 10.28392 | 16783 ft | 382 kts | 166° |
| 2026-05-06 21:55 | 53.48664 | 10.29576 | 17507 ft | 386 kts | 166° |
| 2026-05-06 21:55 | 53.46062 | 10.30762 | 18179 ft | 389 kts | 166° |
| 2026-05-06 21:55 | 53.43460 | 10.31947 | 18850 ft | 393 kts | 166° |
| 2026-05-06 21:56 | 53.40819 | 10.33144 | 19498 ft | 396 kts | 166° |
| 2026-05-06 21:56 | 53.38153 | 10.34343 | 20091 ft | 401 kts | 166° |
| 2026-05-06 21:56 | 53.35446 | 10.35558 | 20630 ft | 407 kts | 166° |
| 2026-05-06 21:56 | 53.32734 | 10.36774 | 21221 ft | 411 kts | 166° |
| 2026-05-06 21:57 | 53.29951 | 10.38022 | 21846 ft | 414 kts | 166° |
| 2026-05-06 21:57 | 53.27209 | 10.39252 | 22448 ft | 417 kts | 166° |
| 2026-05-06 21:57 | 53.24404 | 10.40507 | 23044 ft | 420 kts | 166° |
| 2026-05-06 21:57 | 53.21585 | 10.41765 | 23625 ft | 422 kts | 166° |
| 2026-05-06 21:58 | 53.18753 | 10.43028 | 24190 ft | 425 kts | 166° |
| 2026-05-06 21:58 | 53.15881 | 10.44248 | 24729 ft | 428 kts | 169° |
| 2026-05-06 21:58 | 53.12948 | 10.44996 | 25255 ft | 430 kts | 176° |
| 2026-05-06 21:58 | 53.09942 | 10.45180 | 25792 ft | 431 kts | 182° |
| 2026-05-06 21:59 | 53.06987 | 10.44826 | 26458 ft | 428 kts | 190° |
| 2026-05-06 21:59 | 53.04126 | 10.43885 | 27227 ft | 423 kts | 194° |
| 2026-05-06 21:59 | 53.01264 | 10.42799 | 27964 ft | 420 kts | 194° |
| 2026-05-06 21:59 | 52.98436 | 10.41737 | 28614 ft | 418 kts | 194° |
| 2026-05-06 22:00 | 52.95610 | 10.40714 | 29232 ft | 416 kts | 193° |
| 2026-05-06 22:00 | 52.92792 | 10.39725 | 29753 ft | 417 kts | 193° |
| 2026-05-06 22:00 | 52.89948 | 10.38748 | 29895 ft | 419 kts | 193° |
| 2026-05-06 22:00 | 52.87091 | 10.37784 | 29895 ft | 419 kts | 193° |
| 2026-05-06 22:01 | 52.81448 | 10.35905 | 29893 ft | 417 kts | 192° |
| 2026-05-06 22:01 | 52.75789 | 10.34039 | 29889 ft | 415 kts | 192° |
| 2026-05-06 22:02 | 52.70139 | 10.32186 | 29888 ft | 414 kts | 192° |
| 2026-05-06 22:02 | 52.64502 | 10.30345 | 29887 ft | 413 kts | 193° |
| 2026-05-06 22:03 | 52.58872 | 10.28510 | 29888 ft | 412 kts | 193° |
| 2026-05-06 22:03 | 52.53278 | 10.26691 | 29886 ft | 411 kts | 193° |
| 2026-05-06 22:04 | 52.47715 | 10.24887 | 29885 ft | 410 kts | 193° |
| 2026-05-06 22:04 | 52.42119 | 10.23075 | 29886 ft | 411 kts | 193° |
| 2026-05-06 22:05 | 52.36512 | 10.21267 | 29882 ft | 410 kts | 192° |
| 2026-05-06 22:05 | 52.30966 | 10.19483 | 29876 ft | 408 kts | 192° |
| 2026-05-06 22:06 | 52.25399 | 10.17696 | 29875 ft | 407 kts | 192° |
| 2026-05-06 22:06 | 52.19867 | 10.15927 | 29874 ft | 408 kts | 193° |
| 2026-05-06 22:07 | 52.14328 | 10.14160 | 29869 ft | 407 kts | 193° |
| 2026-05-06 22:07 | 52.08802 | 10.12401 | 29868 ft | 405 kts | 193° |
| 2026-05-06 22:08 | 52.03270 | 10.10647 | 29860 ft | 405 kts | 193° |
| 2026-05-06 22:08 | 51.97777 | 10.08907 | 29859 ft | 403 kts | 193° |
| 2026-05-06 22:09 | 51.92295 | 10.07173 | 29855 ft | 402 kts | 192° |
| 2026-05-06 22:09 | 51.86812 | 10.05445 | 29856 ft | 402 kts | 192° |
| 2026-05-06 22:10 | 51.81314 | 10.03717 | 29856 ft | 401 kts | 192° |
| 2026-05-06 22:10 | 51.75848 | 10.02004 | 29859 ft | 402 kts | 192° |
| 2026-05-06 22:11 | 51.70398 | 10.00296 | 29859 ft | 401 kts | 192° |
| 2026-05-06 22:11 | 51.64922 | 9.98590 | 29858 ft | 402 kts | 192° |
| 2026-05-06 22:12 | 51.59432 | 9.96878 | 29858 ft | 402 kts | 192° |
| 2026-05-06 22:12 | 51.53965 | 9.95179 | 29861 ft | 402 kts | 192° |
| 2026-05-06 22:13 | 51.48457 | 9.93470 | 29858 ft | 403 kts | 191° |
| 2026-05-06 22:13 | 51.42943 | 9.91767 | 29849 ft | 403 kts | 191° |
| 2026-05-06 22:14 | 51.37472 | 9.90080 | 29842 ft | 401 kts | 191° |
| 2026-05-06 22:14 | 51.32060 | 9.88101 | 29828 ft | 402 kts | 201° |
| 2026-05-06 22:15 | 51.26955 | 9.84460 | 29834 ft | 403 kts | 203° |
| 2026-05-06 22:15 | 51.21840 | 9.80784 | 29833 ft | 404 kts | 203° |
| 2026-05-06 22:16 | 51.16722 | 9.77156 | 29836 ft | 405 kts | 203° |
| 2026-05-06 22:16 | 51.11570 | 9.73584 | 29836 ft | 408 kts | 200° |
| 2026-05-06 22:17 | 51.06132 | 9.70901 | 29492 ft | 408 kts | 196° |
| 2026-05-06 22:17 | 51.03410 | 9.69650 | 28552 ft | 412 kts | 196° |
| 2026-05-06 22:17 | 51.00651 | 9.68372 | 27310 ft | 421 kts | 197° |
| 2026-05-06 22:18 | 50.97837 | 9.67053 | 26082 ft | 429 kts | 197° |
| 2026-05-06 22:18 | 50.94986 | 9.65706 | 24894 ft | 435 kts | 197° |
| 2026-05-06 22:18 | 50.92088 | 9.64330 | 23804 ft | 437 kts | 198° |
| 2026-05-06 22:18 | 50.89207 | 9.62959 | 23094 ft | 432 kts | 198° |
| 2026-05-06 22:19 | 50.86375 | 9.61609 | 22270 ft | 420 kts | 198° |
| 2026-05-06 22:19 | 50.83644 | 9.60308 | 20859 ft | 414 kts | 198° |
| 2026-05-06 22:19 | 50.80938 | 9.59016 | 19565 ft | 402 kts | 198° |
| 2026-05-06 22:19 | 50.78328 | 9.57774 | 19119 ft | 391 kts | 198° |
| 2026-05-06 22:20 | 50.75717 | 9.56535 | 18698 ft | 389 kts | 198° |
| 2026-05-06 22:20 | 50.73146 | 9.55315 | 18206 ft | 386 kts | 198° |
| 2026-05-06 22:20 | 50.70596 | 9.54106 | 17687 ft | 384 kts | 198° |
| 2026-05-06 22:20 | 50.68058 | 9.52905 | 17124 ft | 381 kts | 198° |
| 2026-05-06 22:21 | 50.65530 | 9.51709 | 16207 ft | 384 kts | 198° |
| 2026-05-06 22:21 | 50.62996 | 9.50514 | 14819 ft | 383 kts | 198° |
| 2026-05-06 22:21 | 50.60507 | 9.49340 | 13123 ft | 386 kts | 198° |
| 2026-05-06 22:21 | 50.57967 | 9.48144 | 11329 ft | 390 kts | 198° |
| 2026-05-06 22:22 | 50.55392 | 9.46935 | 9975 ft | 388 kts | 198° |
| 2026-05-06 22:22 | 50.52875 | 9.45754 | 9259 ft | 366 kts | 198° |
| 2026-05-06 22:22 | 50.50537 | 9.44657 | 8478 ft | 344 kts | 198° |
| 2026-05-06 22:22 | 50.48298 | 9.43608 | 7748 ft | 323 kts | 198° |
| 2026-05-06 22:23 | 50.46241 | 9.42646 | 7103 ft | 305 kts | 199° |
| 2026-05-06 22:23 | 50.44257 | 9.41715 | 6273 ft | 297 kts | 199° |
| 2026-05-06 22:23 | 50.42388 | 9.40405 | 5454 ft | 292 kts | 217° |
| 2026-05-06 22:23 | 50.40821 | 9.38388 | 4996 ft | 293 kts | 223° |
| 2026-05-06 22:24 | 50.39370 | 9.36336 | 4837 ft | 268 kts | 224° |
| 2026-05-06 22:24 | 50.38006 | 9.34384 | 4840 ft | 264 kts | 224° |
| 2026-05-06 22:24 | 50.36669 | 9.32471 | 4838 ft | 262 kts | 224° |
| 2026-05-06 22:24 | 50.35325 | 9.30549 | 4843 ft | 262 kts | 224° |
| 2026-05-06 22:25 | 50.33975 | 9.28621 | 4847 ft | 261 kts | 224° |
| 2026-05-06 22:25 | 50.32645 | 9.26731 | 4850 ft | 261 kts | 224° |
| 2026-05-06 22:25 | 50.31298 | 9.24814 | 4849 ft | 262 kts | 224° |
| 2026-05-06 22:25 | 50.29945 | 9.22887 | 4847 ft | 261 kts | 223° |
| 2026-05-06 22:26 | 50.28611 | 9.20985 | 4852 ft | 261 kts | 224° |
| 2026-05-06 22:26 | 50.27267 | 9.19086 | 4849 ft | 261 kts | 224° |
| 2026-05-06 22:26 | 50.25917 | 9.17171 | 4854 ft | 261 kts | 223° |
| 2026-05-06 22:26 | 50.24571 | 9.15255 | 4853 ft | 261 kts | 224° |
| 2026-05-06 22:27 | 50.23239 | 9.13368 | 4852 ft | 261 kts | 223° |
| 2026-05-06 22:27 | 50.21894 | 9.11449 | 4851 ft | 261 kts | 224° |
| 2026-05-06 22:27 | 50.20551 | 9.09535 | 4850 ft | 261 kts | 223° |
| 2026-05-06 22:27 | 50.19218 | 9.07629 | 4861 ft | 262 kts | 225° |
| 2026-05-06 22:28 | 50.17979 | 9.05567 | 4851 ft | 261 kts | 230° |
| 2026-05-06 22:28 | 50.16804 | 9.03407 | 4852 ft | 261 kts | 234° |
| 2026-05-06 22:28 | 50.15862 | 9.01018 | 4856 ft | 260 kts | 245° |
| 2026-05-06 22:28 | 50.15221 | 8.98393 | 4861 ft | 259 kts | 253° |
| 2026-05-06 22:29 | 50.14686 | 8.95711 | 4855 ft | 258 kts | 254° |
| 2026-05-06 22:29 | 50.14135 | 8.93082 | 4854 ft | 258 kts | 251° |
| 2026-05-06 22:29 | 50.13536 | 8.90434 | 4857 ft | 257 kts | 251° |
| 2026-05-06 22:29 | 50.12938 | 8.87913 | 4854 ft | 243 kts | 250° |
| 2026-05-06 22:30 | 50.12352 | 8.85505 | 4827 ft | 227 kts | 250° |
| 2026-05-06 22:30 | 50.11808 | 8.83283 | 4654 ft | 213 kts | 250° |
| 2026-05-06 22:30 | 50.11290 | 8.81167 | 4358 ft | 209 kts | 250° |
| 2026-05-06 22:30 | 50.10779 | 8.79075 | 4074 ft | 201 kts | 251° |
| 2026-05-06 22:31 | 50.10312 | 8.77165 | 3838 ft | 178 kts | 251° |
| 2026-05-06 22:31 | 50.09900 | 8.75475 | 3574 ft | 161 kts | 252° |
| 2026-05-06 22:31 | 50.09516 | 8.73892 | 3313 ft | 153 kts | 252° |
| 2026-05-06 22:31 | 50.09148 | 8.72375 | 3087 ft | 143 kts | 253° |
| 2026-05-06 22:32 | 50.08813 | 8.70994 | 2862 ft | 134 kts | 253° |
| 2026-05-06 22:32 | 50.08487 | 8.69639 | 2680 ft | 133 kts | 253° |
| 2026-05-06 22:32 | 50.08162 | 8.68289 | 2504 ft | 132 kts | 253° |
| 2026-05-06 22:32 | 50.07839 | 8.66948 | 2328 ft | 132 kts | 253° |
| 2026-05-06 22:33 | 50.07518 | 8.65616 | 2150 ft | 131 kts | 253° |
| 2026-05-06 22:33 | 50.07193 | 8.64298 | 1976 ft | 131 kts | 252° |
| 2026-05-06 22:33 | 50.06866 | 8.62988 | 1844 ft | 131 kts | 253° |
| 2026-05-06 22:33 | 50.06553 | 8.61669 | 1704 ft | 128 kts | 253° |
| 2026-05-06 22:34 | 50.06254 | 8.60381 | 1444 ft | 127 kts | 252° |
| 2026-05-06 22:34 | 50.05940 | 8.59069 | 1232 ft | 128 kts | 252° |
| 2026-05-06 22:34 | 50.05637 | 8.57774 | 1037 ft | 129 kts | 252° |
| 2026-05-06 22:34 | 50.05323 | 8.56474 | 855 ft | 130 kts | 252° |
| 2026-05-06 22:35 | 50.05006 | 8.55154 | 670 ft | 130 kts | 252° |
| 2026-05-06 22:35 | 50.04688 | 8.53827 | 484 ft | 129 kts | 252° |
| 2026-05-06 22:35 | 50.04385 | 8.52553 | 370 ft | 119 kts | 252° |
| 2026-05-06 22:35 | 50.04153 | 8.51567 | 369 ft | 73 kts | 249° |
| 2026-05-06 22:36 | 50.04020 | 8.51086 | 369 ft | 32 kts | 231° |
| 2026-05-06 22:36 | 50.03903 | 8.50904 | 369 ft | 11 kts | 221° |
| 2026-05-06 22:36 | 50.03837 | 8.50829 | 369 ft | 12 kts | 200° |
| 2026-05-06 22:36 | 50.03780 | 8.50879 | 369 ft | 9 kts | 104° |
| 2026-05-06 22:37 | 50.03796 | 8.50987 | 369 ft | 11 kts | 68° |
| 2026-05-06 22:37 | 50.03825 | 8.51104 | 369 ft | 12 kts | 70° |
| 2026-05-06 22:37 | 50.03857 | 8.51237 | 369 ft | 13 kts | 69° |
| 2026-05-06 22:37 | 50.03892 | 8.51381 | 369 ft | 14 kts | 69° |
| 2026-05-06 22:38 | 50.03929 | 8.51534 | 369 ft | 15 kts | 71° |
| 2026-05-06 22:38 | 50.03966 | 8.51700 | 369 ft | 16 kts | 69° |
| 2026-05-06 22:38 | 50.04008 | 8.51867 | 369 ft | 17 kts | 69° |
| 2026-05-06 22:38 | 50.04052 | 8.52047 | 369 ft | 18 kts | 68° |
| 2026-05-06 22:39 | 50.04099 | 8.52248 | 369 ft | 20 kts | 70° |
| 2026-05-06 22:39 | 50.04150 | 8.52464 | 369 ft | 22 kts | 70° |
| 2026-05-06 22:39 | 50.04205 | 8.52691 | 369 ft | 22 kts | 70° |
| 2026-05-06 22:39 | 50.04258 | 8.52917 | 369 ft | 22 kts | 70° |
| 2026-05-06 22:40 | 50.04313 | 8.53142 | 369 ft | 22 kts | 69° |
| 2026-05-06 22:40 | 50.04367 | 8.53380 | 375 ft | 23 kts | 72° |
| 2026-05-06 22:40 | 50.04400 | 8.53611 | 389 ft | 20 kts | 84° |
| 2026-05-06 22:40 | 50.04415 | 8.53837 | 389 ft | 22 kts | 84° |
| 2026-05-06 22:41 | 50.04447 | 8.54319 | 389 ft | 23 kts | 85° |
| 2026-05-06 22:41 | 50.04436 | 8.54543 | 385 ft | 22 kts | 109° |
| 2026-05-06 22:41 | 50.04339 | 8.54741 | 370 ft | 25 kts | 146° |
| 2026-05-06 22:42 | 50.04179 | 8.54844 | 369 ft | 23 kts | 160° |
| 2026-05-06 22:42 | 50.04058 | 8.54913 | 369 ft | 17 kts | 161° |
| 2026-05-06 22:42 | 50.04024 | 8.55045 | 369 ft | 15 kts | 69° |
| 2026-05-06 22:42 | 50.04061 | 8.55195 | 369 ft | 14 kts | 69° |
| 2026-05-06 22:43 | 50.04104 | 8.55371 | 369 ft | 21 kts | 70° |
| 2026-05-06 22:43 | 50.04156 | 8.55590 | 369 ft | 22 kts | 70° |
| 2026-05-06 22:43 | 50.04210 | 8.55820 | 369 ft | 22 kts | 69° |
| 2026-05-06 22:43 | 50.04266 | 8.56034 | 369 ft | 19 kts | 50° |
| 2026-05-06 22:44 | 50.04384 | 8.56034 | 369 ft | 17 kts | 344° |
| 2026-05-06 22:44 | 50.04459 | 8.56144 | 369 ft | 17 kts | 70° |
| 2026-05-06 22:44 | 50.04501 | 8.56318 | 369 ft | 17 kts | 70° |
| 2026-05-06 22:44 | 50.04571 | 8.56457 | 369 ft | 16 kts | 26° |
| 2026-05-06 22:45 | 50.04658 | 8.56517 | 369 ft | 9 kts | 25° |
| 2026-05-06 22:45 | 50.04656 | 8.56595 | 369 ft | 8 kts | 115° |
| 2026-05-06 22:45 | 50.04637 | 8.56660 | 369 ft | 2 kts | 114° |
| 2026-05-06 22:45 | 50.04635 | 8.56667 | 369 ft | 0 kts | 114° |